sensor_id;sensor_type;location;lat;lon;timestamp;temperature;humidity
80230;DHT22;69540;42.136;24.742;2024-03-08T00:02:14;10.90;64.60
80230;DHT22;69540;42.136;24.742;2024-03-08T00:04:40;10.90;64.70
80230;DHT22;69540;42.136;24.742;2024-03-08T00:07:06;10.90;64.50
80230;DHT22;69540;42.136;24.742;2024-03-08T00:09:32;10.90;64.60
80230;DHT22;69540;42.136;24.742;2024-03-08T00:11:58;10.90;64.60
80230;DHT22;69540;42.136;24.742;2024-03-08T00:14:24;10.80;64.80
80230;DHT22;69540;42.136;24.742;2024-03-08T00:16:50;10.90;64.90
80230;DHT22;69540;42.136;24.742;2024-03-08T00:19:15;10.90;64.90
80230;DHT22;69540;42.136;24.742;2024-03-08T00:21:41;10.90;65.00
80230;DHT22;69540;42.136;24.742;2024-03-08T00:24:07;10.90;64.90
80230;DHT22;69540;42.136;24.742;2024-03-08T00:26:33;10.90;64.70
80230;DHT22;69540;42.136;24.742;2024-03-08T00:28:59;10.90;64.40
80230;DHT22;69540;42.136;24.742;2024-03-08T00:31:24;10.90;64.20
80230;DHT22;69540;42.136;24.742;2024-03-08T00:33:50;10.90;64.20
80230;DHT22;69540;42.136;24.742;2024-03-08T00:36:17;11.00;63.70
80230;DHT22;69540;42.136;24.742;2024-03-08T00:38:43;11.00;63.50
80230;DHT22;69540;42.136;24.742;2024-03-08T00:41:09;10.90;63.70
80230;DHT22;69540;42.136;24.742;2024-03-08T00:43:34;10.90;64.80
80230;DHT22;69540;42.136;24.742;2024-03-08T00:46:00;10.90;63.50
80230;DHT22;69540;42.136;24.742;2024-03-08T00:48:26;10.80;63.60
80230;DHT22;69540;42.136;24.742;2024-03-08T00:50:53;10.80;64.10
80230;DHT22;69540;42.136;24.742;2024-03-08T00:53:19;10.80;64.00
80230;DHT22;69540;42.136;24.742;2024-03-08T00:55:44;10.80;63.80
80230;DHT22;69540;42.136;24.742;2024-03-08T00:58:12;10.90;64.00
80230;DHT22;69540;42.136;24.742;2024-03-08T01:00:38;10.90;64.10
80230;DHT22;69540;42.136;24.742;2024-03-08T01:03:05;10.90;64.00
80230;DHT22;69540;42.136;24.742;2024-03-08T01:05:30;10.80;63.90
80230;DHT22;69540;42.136;24.742;2024-03-08T01:07:56;10.80;64.00
80230;DHT22;69540;42.136;24.742;2024-03-08T01:10:22;10.90;63.50
80230;DHT22;69540;42.136;24.742;2024-03-08T01:12:48;10.90;63.50
80230;DHT22;69540;42.136;24.742;2024-03-08T01:15:15;10.90;63.50
80230;DHT22;69540;42.136;24.742;2024-03-08T01:17:41;10.90;63.70
80230;DHT22;69540;42.136;24.742;2024-03-08T01:20:07;10.90;63.50
80230;DHT22;69540;42.136;24.742;2024-03-08T01:22:36;10.80;63.80
80230;DHT22;69540;42.136;24.742;2024-03-08T01:25:02;10.80;63.60
80230;DHT22;69540;42.136;24.742;2024-03-08T01:27:30;10.90;63.60
80230;DHT22;69540;42.136;24.742;2024-03-08T01:29:56;10.90;63.30
80230;DHT22;69540;42.136;24.742;2024-03-08T01:32:22;10.90;63.20
80230;DHT22;69540;42.136;24.742;2024-03-08T01:34:49;10.90;63.40
80230;DHT22;69540;42.136;24.742;2024-03-08T01:37:15;10.90;63.50
80230;DHT22;69540;42.136;24.742;2024-03-08T01:39:41;10.80;63.60
80230;DHT22;69540;42.136;24.742;2024-03-08T01:42:07;10.80;63.70
80230;DHT22;69540;42.136;24.742;2024-03-08T01:44:32;10.80;64.10
80230;DHT22;69540;42.136;24.742;2024-03-08T01:46:58;10.80;64.00
80230;DHT22;69540;42.136;24.742;2024-03-08T01:49:26;10.80;64.20
80230;DHT22;69540;42.136;24.742;2024-03-08T01:51:52;10.80;64.50
80230;DHT22;69540;42.136;24.742;2024-03-08T01:54:19;10.80;64.30
80230;DHT22;69540;42.136;24.742;2024-03-08T01:56:45;10.90;63.80
80230;DHT22;69540;42.136;24.742;2024-03-08T01:59:12;10.90;63.90
80230;DHT22;69540;42.136;24.742;2024-03-08T02:01:38;10.90;63.80
80230;DHT22;69540;42.136;24.742;2024-03-08T02:04:03;10.80;63.90
80230;DHT22;69540;42.136;24.742;2024-03-08T02:06:31;10.80;64.10
80230;DHT22;69540;42.136;24.742;2024-03-08T02:08:57;10.70;63.80
80230;DHT22;69540;42.136;24.742;2024-03-08T02:11:22;10.70;63.90
80230;DHT22;69540;42.136;24.742;2024-03-08T02:13:48;10.70;64.40
80230;DHT22;69540;42.136;24.742;2024-03-08T02:16:20;10.70;64.40
80230;DHT22;69540;42.136;24.742;2024-03-08T02:18:46;10.70;64.60
80230;DHT22;69540;42.136;24.742;2024-03-08T02:21:12;10.70;64.40
80230;DHT22;69540;42.136;24.742;2024-03-08T02:23:39;10.70;64.10
80230;DHT22;69540;42.136;24.742;2024-03-08T02:26:05;10.70;64.20
80230;DHT22;69540;42.136;24.742;2024-03-08T02:28:33;10.60;64.70
80230;DHT22;69540;42.136;24.742;2024-03-08T02:30:59;10.50;64.60
80230;DHT22;69540;42.136;24.742;2024-03-08T02:33:27;10.50;65.00
80230;DHT22;69540;42.136;24.742;2024-03-08T02:35:54;10.60;64.80
80230;DHT22;69540;42.136;24.742;2024-03-08T02:38:22;10.50;64.80
80230;DHT22;69540;42.136;24.742;2024-03-08T02:40:50;10.50;65.00
80230;DHT22;69540;42.136;24.742;2024-03-08T02:43:17;10.50;65.30
80230;DHT22;69540;42.136;24.742;2024-03-08T02:45:43;10.50;65.40
80230;DHT22;69540;42.136;24.742;2024-03-08T02:48:10;10.40;66.10
80230;DHT22;69540;42.136;24.742;2024-03-08T02:50:36;10.40;65.90
80230;DHT22;69540;42.136;24.742;2024-03-08T02:53:05;10.50;65.70
80230;DHT22;69540;42.136;24.742;2024-03-08T02:55:31;10.50;65.70
80230;DHT22;69540;42.136;24.742;2024-03-08T02:57:59;10.50;65.80
80230;DHT22;69540;42.136;24.742;2024-03-08T03:00:24;10.50;65.60
80230;DHT22;69540;42.136;24.742;2024-03-08T03:02:50;10.50;65.70
80230;DHT22;69540;42.136;24.742;2024-03-08T03:05:22;10.40;65.90
80230;DHT22;69540;42.136;24.742;2024-03-08T03:07:48;10.30;66.60
80230;DHT22;69540;42.136;24.742;2024-03-08T03:10:16;10.30;66.20
80230;DHT22;69540;42.136;24.742;2024-03-08T03:12:42;10.40;65.90
80230;DHT22;69540;42.136;24.742;2024-03-08T03:15:08;10.30;66.10
80230;DHT22;69540;42.136;24.742;2024-03-08T03:17:34;10.40;65.90
80230;DHT22;69540;42.136;24.742;2024-03-08T03:20:00;10.40;66.10
80230;DHT22;69540;42.136;24.742;2024-03-08T03:22:30;10.30;66.90
80230;DHT22;69540;42.136;24.742;2024-03-08T03:24:56;10.30;67.20
80230;DHT22;69540;42.136;24.742;2024-03-08T03:27:23;10.20;67.40
80230;DHT22;69540;42.136;24.742;2024-03-08T03:29:50;10.20;67.80
80230;DHT22;69540;42.136;24.742;2024-03-08T03:32:17;10.20;68.00
80230;DHT22;69540;42.136;24.742;2024-03-08T03:34:46;10.20;68.40
80230;DHT22;69540;42.136;24.742;2024-03-08T03:37:12;10.20;68.50
80230;DHT22;69540;42.136;24.742;2024-03-08T03:39:40;10.20;68.40
80230;DHT22;69540;42.136;24.742;2024-03-08T03:42:17;10.10;68.90
80230;DHT22;69540;42.136;24.742;2024-03-08T03:44:49;10.20;68.60
80230;DHT22;69540;42.136;24.742;2024-03-08T03:47:15;10.20;68.80
80230;DHT22;69540;42.136;24.742;2024-03-08T03:49:42;10.20;68.60
80230;DHT22;69540;42.136;24.742;2024-03-08T03:52:08;10.00;69.10
80230;DHT22;69540;42.136;24.742;2024-03-08T03:54:34;10.00;69.60
80230;DHT22;69540;42.136;24.742;2024-03-08T03:57:00;10.00;70.00
80230;DHT22;69540;42.136;24.742;2024-03-08T03:59:29;10.00;69.70
80230;DHT22;69540;42.136;24.742;2024-03-08T04:01:55;10.10;69.50
80230;DHT22;69540;42.136;24.742;2024-03-08T04:04:23;10.10;69.20
80230;DHT22;69540;42.136;24.742;2024-03-08T04:06:50;10.10;69.60
80230;DHT22;69540;42.136;24.742;2024-03-08T04:09:16;10.10;69.50
80230;DHT22;69540;42.136;24.742;2024-03-08T04:11:44;10.10;69.50
80230;DHT22;69540;42.136;24.742;2024-03-08T04:14:10;10.00;70.50
80230;DHT22;69540;42.136;24.742;2024-03-08T04:16:37;10.00;69.40
80230;DHT22;69540;42.136;24.742;2024-03-08T04:19:02;10.00;69.80
80230;DHT22;69540;42.136;24.742;2024-03-08T04:21:32;10.00;69.50
80230;DHT22;69540;42.136;24.742;2024-03-08T04:23:58;9.80;69.90
80230;DHT22;69540;42.136;24.742;2024-03-08T04:26:24;9.80;70.70
80230;DHT22;69540;42.136;24.742;2024-03-08T04:28:51;9.80;69.90
80230;DHT22;69540;42.136;24.742;2024-03-08T04:31:17;9.70;70.20
80230;DHT22;69540;42.136;24.742;2024-03-08T04:33:42;9.70;70.00
80230;DHT22;69540;42.136;24.742;2024-03-08T04:36:10;9.70;70.10
80230;DHT22;69540;42.136;24.742;2024-03-08T04:38:42;9.70;70.40
80230;DHT22;69540;42.136;24.742;2024-03-08T04:41:08;9.60;70.70
80230;DHT22;69540;42.136;24.742;2024-03-08T04:43:34;9.60;71.00
80230;DHT22;69540;42.136;24.742;2024-03-08T04:46:00;9.60;70.90
80230;DHT22;69540;42.136;24.742;2024-03-08T04:48:25;9.80;70.20
80230;DHT22;69540;42.136;24.742;2024-03-08T04:50:54;9.80;69.70
80230;DHT22;69540;42.136;24.742;2024-03-08T04:53:21;9.60;70.00
80230;DHT22;69540;42.136;24.742;2024-03-08T04:55:46;9.70;69.30
80230;DHT22;69540;42.136;24.742;2024-03-08T04:58:12;9.80;69.00
80230;DHT22;69540;42.136;24.742;2024-03-08T05:00:38;9.80;68.80
80230;DHT22;69540;42.136;24.742;2024-03-08T05:03:03;9.80;68.80
80230;DHT22;69540;42.136;24.742;2024-03-08T05:05:30;9.70;68.60
80230;DHT22;69540;42.136;24.742;2024-03-08T05:07:56;9.70;68.80
80230;DHT22;69540;42.136;24.742;2024-03-08T05:10:23;9.70;68.80
80230;DHT22;69540;42.136;24.742;2024-03-08T05:12:49;9.70;68.60
80230;DHT22;69540;42.136;24.742;2024-03-08T05:15:14;9.60;69.10
80230;DHT22;69540;42.136;24.742;2024-03-08T05:17:40;9.50;69.50
80230;DHT22;69540;42.136;24.742;2024-03-08T05:20:07;9.60;69.50
80230;DHT22;69540;42.136;24.742;2024-03-08T05:22:37;9.60;69.30
80230;DHT22;69540;42.136;24.742;2024-03-08T05:25:03;9.60;69.50
80230;DHT22;69540;42.136;24.742;2024-03-08T05:27:29;9.50;69.90
80230;DHT22;69540;42.136;24.742;2024-03-08T05:29:55;9.50;69.60
80230;DHT22;69540;42.136;24.742;2024-03-08T05:32:21;9.60;69.20
80230;DHT22;69540;42.136;24.742;2024-03-08T05:34:46;9.50;69.30
80230;DHT22;69540;42.136;24.742;2024-03-08T05:37:12;9.50;69.70
80230;DHT22;69540;42.136;24.742;2024-03-08T05:39:38;9.60;69.60
80230;DHT22;69540;42.136;24.742;2024-03-08T05:42:03;9.60;69.30
80230;DHT22;69540;42.136;24.742;2024-03-08T05:44:29;9.60;69.20
80230;DHT22;69540;42.136;24.742;2024-03-08T05:46:56;9.70;69.30
80230;DHT22;69540;42.136;24.742;2024-03-08T05:49:22;9.70;69.30
80230;DHT22;69540;42.136;24.742;2024-03-08T05:51:47;9.70;69.10
80230;DHT22;69540;42.136;24.742;2024-03-08T05:54:13;9.60;69.20
80230;DHT22;69540;42.136;24.742;2024-03-08T05:56:40;9.60;69.10
80230;DHT22;69540;42.136;24.742;2024-03-08T05:59:09;9.60;68.70
80230;DHT22;69540;42.136;24.742;2024-03-08T06:01:35;9.60;68.80
80230;DHT22;69540;42.136;24.742;2024-03-08T06:04:06;9.50;69.00
80230;DHT22;69540;42.136;24.742;2024-03-08T06:06:32;9.60;68.90
80230;DHT22;69540;42.136;24.742;2024-03-08T06:08:58;9.70;68.60
80230;DHT22;69540;42.136;24.742;2024-03-08T06:11:25;9.60;68.70
80230;DHT22;69540;42.136;24.742;2024-03-08T06:13:55;9.70;68.40
80230;DHT22;69540;42.136;24.742;2024-03-08T06:16:26;9.70;68.40
80230;DHT22;69540;42.136;24.742;2024-03-08T06:18:57;9.80;68.50
80230;DHT22;69540;42.136;24.742;2024-03-08T06:21:26;9.80;68.50
80230;DHT22;69540;42.136;24.742;2024-03-08T06:23:54;9.90;68.10
80230;DHT22;69540;42.136;24.742;2024-03-08T06:26:24;9.80;68.20
80230;DHT22;69540;42.136;24.742;2024-03-08T06:28:56;9.80;68.60
80230;DHT22;69540;42.136;24.742;2024-03-08T06:31:22;9.80;68.80
80230;DHT22;69540;42.136;24.742;2024-03-08T06:33:48;9.80;68.90
80230;DHT22;69540;42.136;24.742;2024-03-08T06:36:18;9.90;69.00
80230;DHT22;69540;42.136;24.742;2024-03-08T06:38:50;9.90;68.50
80230;DHT22;69540;42.136;24.742;2024-03-08T06:41:16;10.00;68.40
80230;DHT22;69540;42.136;24.742;2024-03-08T06:43:42;10.00;67.80
80230;DHT22;69540;42.136;24.742;2024-03-08T06:46:08;10.10;67.30
80230;DHT22;69540;42.136;24.742;2024-03-08T06:48:35;10.10;66.40
80230;DHT22;69540;42.136;24.742;2024-03-08T06:51:02;10.00;67.20
80230;DHT22;69540;42.136;24.742;2024-03-08T06:53:28;9.90;67.90
80230;DHT22;69540;42.136;24.742;2024-03-08T06:55:54;10.00;68.00
80230;DHT22;69540;42.136;24.742;2024-03-08T06:58:20;10.10;67.50
80230;DHT22;69540;42.136;24.742;2024-03-08T07:00:45;10.20;67.40
80230;DHT22;69540;42.136;24.742;2024-03-08T07:03:12;10.20;67.40
80230;DHT22;69540;42.136;24.742;2024-03-08T07:05:42;10.20;67.10
80230;DHT22;69540;42.136;24.742;2024-03-08T07:08:08;10.30;66.70
80230;DHT22;69540;42.136;24.742;2024-03-08T07:10:34;10.10;67.10
80230;DHT22;69540;42.136;24.742;2024-03-08T07:13:00;10.10;66.60
80230;DHT22;69540;42.136;24.742;2024-03-08T07:15:27;10.00;67.30
80230;DHT22;69540;42.136;24.742;2024-03-08T07:17:54;10.00;67.50
80230;DHT22;69540;42.136;24.742;2024-03-08T07:20:20;10.10;68.00
80230;DHT22;69540;42.136;24.742;2024-03-08T07:22:47;10.20;67.40
80230;DHT22;69540;42.136;24.742;2024-03-08T07:25:14;10.30;66.80
80230;DHT22;69540;42.136;24.742;2024-03-08T07:27:50;10.30;66.70
80230;DHT22;69540;42.136;24.742;2024-03-08T07:30:20;10.30;67.00
80230;DHT22;69540;42.136;24.742;2024-03-08T07:33:05;10.30;67.90
80230;DHT22;69540;42.136;24.742;2024-03-08T07:35:33;10.30;67.10
80230;DHT22;69540;42.136;24.742;2024-03-08T07:38:06;10.20;67.30
80230;DHT22;69540;42.136;24.742;2024-03-08T07:40:41;10.30;67.00
80230;DHT22;69540;42.136;24.742;2024-03-08T07:43:10;10.20;67.30
80230;DHT22;69540;42.136;24.742;2024-03-08T07:45:40;10.30;67.50
80230;DHT22;69540;42.136;24.742;2024-03-08T07:48:06;10.40;67.50
80230;DHT22;69540;42.136;24.742;2024-03-08T07:50:39;10.40;66.10
80230;DHT22;69540;42.136;24.742;2024-03-08T07:53:05;10.50;65.50
80230;DHT22;69540;42.136;24.742;2024-03-08T07:55:34;10.40;65.20
80230;DHT22;69540;42.136;24.742;2024-03-08T07:58:04;10.30;65.30
80230;DHT22;69540;42.136;24.742;2024-03-08T08:00:30;10.30;65.80
80230;DHT22;69540;42.136;24.742;2024-03-08T08:02:57;10.30;65.70
80230;DHT22;69540;42.136;24.742;2024-03-08T08:05:23;10.30;65.70
80230;DHT22;69540;42.136;24.742;2024-03-08T08:07:48;10.40;66.00
80230;DHT22;69540;42.136;24.742;2024-03-08T08:10:15;10.50;65.70
80230;DHT22;69540;42.136;24.742;2024-03-08T08:12:47;10.50;65.60
80230;DHT22;69540;42.136;24.742;2024-03-08T08:15:13;10.50;65.40
80230;DHT22;69540;42.136;24.742;2024-03-08T08:17:46;10.60;65.40
80230;DHT22;69540;42.136;24.742;2024-03-08T08:20:13;10.60;64.70
80230;DHT22;69540;42.136;24.742;2024-03-08T08:22:42;10.60;64.80
80230;DHT22;69540;42.136;24.742;2024-03-08T08:25:10;10.70;65.00
80230;DHT22;69540;42.136;24.742;2024-03-08T08:27:41;10.70;64.70
80230;DHT22;69540;42.136;24.742;2024-03-08T08:30:08;10.70;64.50
80230;DHT22;69540;42.136;24.742;2024-03-08T08:32:35;10.80;64.70
80230;DHT22;69540;42.136;24.742;2024-03-08T08:35:05;10.90;63.90
80230;DHT22;69540;42.136;24.742;2024-03-08T08:37:34;10.90;63.00
80230;DHT22;69540;42.136;24.742;2024-03-08T08:40:02;10.90;62.80
80230;DHT22;69540;42.136;24.742;2024-03-08T08:42:34;10.90;63.10
80230;DHT22;69540;42.136;24.742;2024-03-08T08:44:59;10.90;63.20
80230;DHT22;69540;42.136;24.742;2024-03-08T08:47:26;11.00;63.00
80230;DHT22;69540;42.136;24.742;2024-03-08T08:49:52;11.10;62.40
80230;DHT22;69540;42.136;24.742;2024-03-08T08:52:19;11.20;62.50
80230;DHT22;69540;42.136;24.742;2024-03-08T08:54:45;11.30;62.50
80230;DHT22;69540;42.136;24.742;2024-03-08T08:57:11;11.40;61.70
80230;DHT22;69540;42.136;24.742;2024-03-08T08:59:36;11.30;61.50
80230;DHT22;69540;42.136;24.742;2024-03-08T09:02:05;11.20;62.20
80230;DHT22;69540;42.136;24.742;2024-03-08T09:04:32;11.20;62.10
80230;DHT22;69540;42.136;24.742;2024-03-08T09:06:57;11.30;61.50
80230;DHT22;69540;42.136;24.742;2024-03-08T09:09:23;11.40;61.30
80230;DHT22;69540;42.136;24.742;2024-03-08T09:11:51;11.30;61.50
80230;DHT22;69540;42.136;24.742;2024-03-08T09:14:17;11.30;61.60
80230;DHT22;69540;42.136;24.742;2024-03-08T09:16:42;11.30;61.50
80230;DHT22;69540;42.136;24.742;2024-03-08T09:19:08;11.40;61.60
80230;DHT22;69540;42.136;24.742;2024-03-08T09:21:36;11.50;60.80
80230;DHT22;69540;42.136;24.742;2024-03-08T09:24:02;11.60;60.00
80230;DHT22;69540;42.136;24.742;2024-03-08T09:26:28;11.70;59.80
80230;DHT22;69540;42.136;24.742;2024-03-08T09:28:54;11.80;58.70
80230;DHT22;69540;42.136;24.742;2024-03-08T09:31:22;11.80;59.00
80230;DHT22;69540;42.136;24.742;2024-03-08T09:33:48;11.70;58.60
80230;DHT22;69540;42.136;24.742;2024-03-08T09:36:14;11.70;59.40
80230;DHT22;69540;42.136;24.742;2024-03-08T09:38:40;11.70;58.90
80230;DHT22;69540;42.136;24.742;2024-03-08T09:41:06;11.60;58.90
80230;DHT22;69540;42.136;24.742;2024-03-08T09:43:31;11.70;58.30
80230;DHT22;69540;42.136;24.742;2024-03-08T09:45:59;11.70;58.70
80230;DHT22;69540;42.136;24.742;2024-03-08T09:48:26;11.70;58.70
80230;DHT22;69540;42.136;24.742;2024-03-08T09:50:52;11.80;58.80
80230;DHT22;69540;42.136;24.742;2024-03-08T09:53:18;11.80;58.90
80230;DHT22;69540;42.136;24.742;2024-03-08T09:55:44;11.80;58.80
80230;DHT22;69540;42.136;24.742;2024-03-08T09:58:15;11.90;58.50
80230;DHT22;69540;42.136;24.742;2024-03-08T10:00:47;11.90;58.20
80230;DHT22;69540;42.136;24.742;2024-03-08T10:03:13;11.90;58.10
80230;DHT22;69540;42.136;24.742;2024-03-08T10:05:41;12.00;58.10
80230;DHT22;69540;42.136;24.742;2024-03-08T10:08:07;12.00;57.90
80230;DHT22;69540;42.136;24.742;2024-03-08T10:10:37;12.00;57.70
80230;DHT22;69540;42.136;24.742;2024-03-08T10:13:06;12.00;57.80
80230;DHT22;69540;42.136;24.742;2024-03-08T10:15:32;12.00;57.90
80230;DHT22;69540;42.136;24.742;2024-03-08T10:18:00;12.10;57.80
80230;DHT22;69540;42.136;24.742;2024-03-08T10:20:29;12.10;57.90
80230;DHT22;69540;42.136;24.742;2024-03-08T10:23:02;12.10;58.10
80230;DHT22;69540;42.136;24.742;2024-03-08T10:25:33;12.10;57.80
80230;DHT22;69540;42.136;24.742;2024-03-08T10:27:59;12.20;57.60
80230;DHT22;69540;42.136;24.742;2024-03-08T10:30:25;12.20;57.10
80230;DHT22;69540;42.136;24.742;2024-03-08T10:32:50;12.30;57.20
80230;DHT22;69540;42.136;24.742;2024-03-08T10:35:17;12.30;57.40
80230;DHT22;69540;42.136;24.742;2024-03-08T10:37:50;12.30;57.20
80230;DHT22;69540;42.136;24.742;2024-03-08T10:40:24;12.40;56.90
80230;DHT22;69540;42.136;24.742;2024-03-08T10:42:58;12.20;56.90
80230;DHT22;69540;42.136;24.742;2024-03-08T10:50:36;12.50;57.10
80230;DHT22;69540;42.136;24.742;2024-03-08T10:53:06;12.50;57.00
80230;DHT22;69540;42.136;24.742;2024-03-08T10:55:33;12.60;56.70
80230;DHT22;69540;42.136;24.742;2024-03-08T10:57:59;12.60;56.00
80230;DHT22;69540;42.136;24.742;2024-03-08T11:00:26;12.70;55.70
80230;DHT22;69540;42.136;24.742;2024-03-08T11:02:53;12.90;55.40
80230;DHT22;69540;42.136;24.742;2024-03-08T11:08:20;13.10;55.00
80230;DHT22;69540;42.136;24.742;2024-03-08T11:10:53;13.00;54.50
80230;DHT22;69540;42.136;24.742;2024-03-08T11:13:44;13.10;54.50
80230;DHT22;69540;42.136;24.742;2024-03-08T11:16:10;13.20;54.30
80230;DHT22;69540;42.136;24.742;2024-03-08T11:18:37;13.30;54.70
80230;DHT22;69540;42.136;24.742;2024-03-08T11:21:04;13.40;53.90
80230;DHT22;69540;42.136;24.742;2024-03-08T11:23:40;13.60;53.70
80230;DHT22;69540;42.136;24.742;2024-03-08T11:26:20;13.70;53.00
80230;DHT22;69540;42.136;24.742;2024-03-08T11:28:46;13.80;53.10
80230;DHT22;69540;42.136;24.742;2024-03-08T11:33:39;13.90;52.10
80230;DHT22;69540;42.136;24.742;2024-03-08T11:36:13;13.90;52.10
80230;DHT22;69540;42.136;24.742;2024-03-08T11:38:42;14.00;51.60
80230;DHT22;69540;42.136;24.742;2024-03-08T11:41:09;14.00;51.70
80230;DHT22;69540;42.136;24.742;2024-03-08T11:43:42;14.00;51.70
80230;DHT22;69540;42.136;24.742;2024-03-08T11:46:09;13.90;52.60
80230;DHT22;69540;42.136;24.742;2024-03-08T11:48:35;13.60;52.10
80230;DHT22;69540;42.136;24.742;2024-03-08T11:51:04;13.70;52.80
80230;DHT22;69540;42.136;24.742;2024-03-08T11:53:30;13.60;53.20
80230;DHT22;69540;42.136;24.742;2024-03-08T11:56:17;13.80;52.90
80230;DHT22;69540;42.136;24.742;2024-03-08T11:58:53;13.90;52.40
80230;DHT22;69540;42.136;24.742;2024-03-08T12:01:19;14.10;51.60
80230;DHT22;69540;42.136;24.742;2024-03-08T12:03:52;14.30;51.30
80230;DHT22;69540;42.136;24.742;2024-03-08T12:06:18;14.60;51.10
80230;DHT22;69540;42.136;24.742;2024-03-08T12:08:46;14.70;50.30
80230;DHT22;69540;42.136;24.742;2024-03-08T12:11:14;14.90;50.20
80230;DHT22;69540;42.136;24.742;2024-03-08T12:13:41;14.90;51.50
80230;DHT22;69540;42.136;24.742;2024-03-08T12:16:07;15.10;50.90
80230;DHT22;69540;42.136;24.742;2024-03-08T12:18:37;15.30;51.00
80230;DHT22;69540;42.136;24.742;2024-03-08T12:21:13;15.30;48.40
80230;DHT22;69540;42.136;24.742;2024-03-08T12:23:43;15.20;47.60
80230;DHT22;69540;42.136;24.742;2024-03-08T12:28:44;15.10;47.90
80230;DHT22;69540;42.136;24.742;2024-03-08T12:31:11;15.00;48.80
80230;DHT22;69540;42.136;24.742;2024-03-08T12:36:15;14.90;49.30
80230;DHT22;69540;42.136;24.742;2024-03-08T12:38:44;15.00;49.20
80230;DHT22;69540;42.136;24.742;2024-03-08T12:41:13;14.80;48.80
80230;DHT22;69540;42.136;24.742;2024-03-08T12:43:39;14.60;49.40
80230;DHT22;69540;42.136;24.742;2024-03-08T12:46:05;14.40;49.60
80230;DHT22;69540;42.136;24.742;2024-03-08T12:48:35;14.40;49.90
80230;DHT22;69540;42.136;24.742;2024-03-08T12:51:09;14.20;50.10
80230;DHT22;69540;42.136;24.742;2024-03-08T12:53:35;14.10;50.30
80230;DHT22;69540;42.136;24.742;2024-03-08T12:56:02;14.10;50.90
80230;DHT22;69540;42.136;24.742;2024-03-08T12:58:29;14.10;50.20
80230;DHT22;69540;42.136;24.742;2024-03-08T13:00:55;14.10;50.10
80230;DHT22;69540;42.136;24.742;2024-03-08T13:03:20;14.00;50.40
80230;DHT22;69540;42.136;24.742;2024-03-08T13:05:48;14.00;50.50
80230;DHT22;69540;42.136;24.742;2024-03-08T13:08:15;14.10;50.30
80230;DHT22;69540;42.136;24.742;2024-03-08T13:10:42;14.00;50.40
80230;DHT22;69540;42.136;24.742;2024-03-08T13:13:09;14.10;49.80
80230;DHT22;69540;42.136;24.742;2024-03-08T13:15:35;13.80;50.10
80230;DHT22;69540;42.136;24.742;2024-03-08T13:18:01;13.80;50.30
80230;DHT22;69540;42.136;24.742;2024-03-08T13:20:27;13.90;50.30
80230;DHT22;69540;42.136;24.742;2024-03-08T13:22:54;14.00;49.90
80230;DHT22;69540;42.136;24.742;2024-03-08T13:25:19;14.10;49.00
80230;DHT22;69540;42.136;24.742;2024-03-08T13:27:45;13.90;49.70
80230;DHT22;69540;42.136;24.742;2024-03-08T13:30:13;14.00;49.80
80230;DHT22;69540;42.136;24.742;2024-03-08T13:32:42;14.00;50.10
80230;DHT22;69540;42.136;24.742;2024-03-08T13:35:09;14.10;49.80
80230;DHT22;69540;42.136;24.742;2024-03-08T13:37:41;14.20;49.60
80230;DHT22;69540;42.136;24.742;2024-03-08T13:40:08;14.10;49.40
80230;DHT22;69540;42.136;24.742;2024-03-08T13:42:39;14.10;49.20
80230;DHT22;69540;42.136;24.742;2024-03-08T13:45:07;14.20;49.50
80230;DHT22;69540;42.136;24.742;2024-03-08T13:47:34;14.10;49.30
80230;DHT22;69540;42.136;24.742;2024-03-08T13:50:00;14.00;49.50
80230;DHT22;69540;42.136;24.742;2024-03-08T13:52:26;13.90;49.70
80230;DHT22;69540;42.136;24.742;2024-03-08T13:54:55;13.90;49.60
80230;DHT22;69540;42.136;24.742;2024-03-08T13:57:21;13.90;49.50
80230;DHT22;69540;42.136;24.742;2024-03-08T13:59:48;13.90;49.30
80230;DHT22;69540;42.136;24.742;2024-03-08T14:02:16;14.00;49.00
80230;DHT22;69540;42.136;24.742;2024-03-08T14:04:42;14.00;48.70
80230;DHT22;69540;42.136;24.742;2024-03-08T14:07:09;14.00;48.80
80230;DHT22;69540;42.136;24.742;2024-03-08T14:09:36;14.00;48.80
80230;DHT22;69540;42.136;24.742;2024-03-08T14:12:04;14.00;49.00
80230;DHT22;69540;42.136;24.742;2024-03-08T14:14:33;14.00;49.10
80230;DHT22;69540;42.136;24.742;2024-03-08T14:17:02;14.10;50.00
80230;DHT22;69540;42.136;24.742;2024-03-08T14:19:29;14.10;51.20
80230;DHT22;69540;42.136;24.742;2024-03-08T14:21:56;14.20;49.70
80230;DHT22;69540;42.136;24.742;2024-03-08T14:24:24;14.30;49.00
80230;DHT22;69540;42.136;24.742;2024-03-08T14:26:50;14.20;49.30
80230;DHT22;69540;42.136;24.742;2024-03-08T14:29:17;14.20;49.70
80230;DHT22;69540;42.136;24.742;2024-03-08T14:31:44;14.10;49.80
80230;DHT22;69540;42.136;24.742;2024-03-08T14:34:10;14.10;49.50
80230;DHT22;69540;42.136;24.742;2024-03-08T14:36:36;14.00;49.10
80230;DHT22;69540;42.136;24.742;2024-03-08T14:39:03;14.00;49.10
80230;DHT22;69540;42.136;24.742;2024-03-08T14:41:29;14.00;49.50
80230;DHT22;69540;42.136;24.742;2024-03-08T14:43:55;14.00;49.20
80230;DHT22;69540;42.136;24.742;2024-03-08T14:46:22;14.10;49.20
80230;DHT22;69540;42.136;24.742;2024-03-08T14:48:55;14.20;48.20
80230;DHT22;69540;42.136;24.742;2024-03-08T14:51:21;14.10;48.20
80230;DHT22;69540;42.136;24.742;2024-03-08T14:53:52;14.10;48.40
80230;DHT22;69540;42.136;24.742;2024-03-08T14:56:18;14.10;49.10
80230;DHT22;69540;42.136;24.742;2024-03-08T14:58:44;13.90;49.60
80230;DHT22;69540;42.136;24.742;2024-03-08T15:01:12;13.80;50.50
80230;DHT22;69540;42.136;24.742;2024-03-08T15:03:43;13.80;50.80
80230;DHT22;69540;42.136;24.742;2024-03-08T15:06:09;13.70;51.40
80230;DHT22;69540;42.136;24.742;2024-03-08T15:08:36;13.70;51.70
80230;DHT22;69540;42.136;24.742;2024-03-08T15:11:03;13.50;52.10
80230;DHT22;69540;42.136;24.742;2024-03-08T15:13:28;13.30;52.60
80230;DHT22;69540;42.136;24.742;2024-03-08T15:16:08;13.30;52.50
80230;DHT22;69540;42.136;24.742;2024-03-08T15:18:35;13.30;52.70
80230;DHT22;69540;42.136;24.742;2024-03-08T15:21:05;13.30;52.60
80230;DHT22;69540;42.136;24.742;2024-03-08T15:23:36;13.20;52.40
80230;DHT22;69540;42.136;24.742;2024-03-08T15:26:03;13.20;52.60
80230;DHT22;69540;42.136;24.742;2024-03-08T15:28:33;13.20;52.50
80230;DHT22;69540;42.136;24.742;2024-03-08T15:31:03;13.20;52.80
80230;DHT22;69540;42.136;24.742;2024-03-08T15:33:37;13.20;52.30
80230;DHT22;69540;42.136;24.742;2024-03-08T15:36:17;13.30;51.70